Etusivu
METAR-TAF:

METAR-TAF

Lentoasemat :

Saint-Étienne, Ranska

Leveyspiiri: 45-32N, Pituuspiiri: 004-18E, korkeus merenpinnasta: 404 m

Tämänhetkinen sää

Tämä raportti tehtiin 13 minuuttia sitten, kello 15.30 UTC
Tuuli 4 kn pohjoisesta, vaihdellen lännen ja koillisen välillä
Lämpötila 14°C
Kosteus 33%
Ilmanpaine 1028 hPa
Näkyvyys 10 km tai enemmän
ei pilviä alle 1500 m:ssä eikä cumulonimbus-pilviä

METAR: LFMH 211530Z AUTO 35004KT 280V050 CAVOK 14/M02 Q1028 NOSIG

Aika: 16:43 (15:43 UTC)

Sääennuste

Tämä raportti tehtiin 1 tunti ja 43 minuuttia sitten, kello 14.00 UTC
Ennuste voimassa 21. päivästä klo 15 UTC - 22. päivään klo 15 UTC
Tuuli 6 kn pohjoisen/luoteesta
Näkyvyys 10 km tai enemmän
ei pilviä alle 1500 m:ssä eikä cumulonimbus-pilviä
Tulossa
21. päivästä klo 18 UTC - 21. päivään klo 20 UTC
Tuuli 3 kn eri suunnista

TAF: LFMH 211400Z 2115/2215 34006KT CAVOK BECMG 2118/2120 VRB03KT

Säähavainnot ja -ennusteet yli 4000 lentoasemalta (METAR- ja TAF-raportit).

Käytössä olevat sääasemat on merkitty karttaan keltaisilla ja punaisilla pisteillä.

Aseta hiiri pisteen päälle nähdäksesi sääaseman nimen.

Klikkaa sitten nähdäksesi säähavainnot ja -ennusteet.

Kartan vaihtaminen: klikkaa mustalla rastilla varustettuja vihreitä pisteitä, niin voit zoomata sisään; viivalla varustettua vihreää pistettä, niin voit zoomata ulos tai vihreitä nuolia, niin pääset viereisille kartoille.


METAR-TAF: